La Plata, MO

3:37 PM CDT on April 25, 2015 (GMT -0500)
Kirksville Regional | | Change Station
CLOSE
Current Station
Airport
Location: Kirksville,
Elevation: 965 ft
Nearby Weather Stations

Elev 965 ft 40.10 °N, 92.55 °W | Updated 42 minutes ago

Overcast
Overcast
54 °F
Feels Like 54 °F
N
17
Wind Variable Wind from NNE

Today
High -- | Low -- °F
--% Chance of Precip.
Yesterday
High -- | Low -- °F
Precip. -- in
6:18 AM 7:58 PM
Waxing Crescent, 49% visible
Pressure 29.57 in
Visibility 4.0 miles
Clouds Overcast 600 ft
Dew Point 53 °F
Humidity 97%
Rainfall 0.53 in
Snow Depth Not available.
UV 3 out of 12
Pollen .60 out of 12
Air Quality Not available.
Flu Activity Local Activity
METAR KIRK 251955Z AUTO 03015KT 4SM BR OVC006 12/12 A2957 RMK AO2 RAE41 CIG 005V011 SLP014 P0003 T01220117

More Conditions Fewer Conditions

Pressure 29.57 in
Visibility 4.0 miles
Clouds Overcast 600 ft
Dew Point 53 °F
Humidity 97%
Rainfall 0.53 in
Snow Depth Not available.
UV 3 out of 12
Pollen .60 out of 12
Air Quality Not available.
Flu Activity Local Activity
METAR KIRK 251955Z AUTO 03015KT 4SM BR OVC006 12/12 A2957 RMK AO2 RAE41 CIG 005V011 SLP014 P0003 T01220117

More Conditions Fewer Conditions

10-Day Weather Forecast

Almanac

Astronomy

Apr. 25, 2015 Rise Set
Actual Time
Civil Twilight
Nautical Twilight
Astronomical Twilight
Moon
Length of Visible Light
Length of Day
Tomorrow will be .
, % of the Moon is Illuminated

Today's Extremes

State Highs State Lows

Community

WunderPhotos

Upload Photos

1,816,798 photos uploaded!

WunderBlogs® & News

Nearby

Air Quality

  Air Quality AQ Index Pollutant
Not available.

Snow Depth

Station Depth Elevation

Earthquake Activity

City Distance Mag. Time & Date
Minimum magnitude displayed is 2.5.

Coastal Water Temperatures

Place Temperature

Stations

Nearby Weather Stations

Station Location Temp. Windchill Dew Point Humidity Wind Precip. Elev Updated Type